sensor_id;sensor_type;location;lat;lon;timestamp;P1;durP1;ratioP1;P2;durP2;ratioP2
50968;SDS011;36982;51.474;7.228;2022-10-13T00:00:43;15.27;;;8.40;;
50968;SDS011;36982;51.474;7.228;2022-10-13T00:03:10;14.53;;;8.77;;
50968;SDS011;36982;51.474;7.228;2022-10-13T00:05:40;12.77;;;8.63;;
50968;SDS011;36982;51.474;7.228;2022-10-13T00:08:06;15.13;;;8.67;;
50968;SDS011;36982;51.474;7.228;2022-10-13T00:10:34;18.53;;;8.47;;
50968;SDS011;36982;51.474;7.228;2022-10-13T00:13:01;12.53;;;8.23;;
50968;SDS011;36982;51.474;7.228;2022-10-13T00:15:27;15.27;;;8.83;;
50968;SDS011;36982;51.474;7.228;2022-10-13T00:17:52;13.97;;;7.93;;
50968;SDS011;36982;51.474;7.228;2022-10-13T00:20:18;16.20;;;8.40;;
50968;SDS011;36982;51.474;7.228;2022-10-13T00:22:43;13.57;;;8.20;;
50968;SDS011;36982;51.474;7.228;2022-10-13T00:25:09;13.87;;;7.70;;
50968;SDS011;36982;51.474;7.228;2022-10-13T00:27:35;16.50;;;7.73;;
50968;SDS011;36982;51.474;7.228;2022-10-13T00:30:00;11.87;;;7.53;;
50968;SDS011;36982;51.474;7.228;2022-10-13T00:32:26;11.97;;;7.60;;
50968;SDS011;36982;51.474;7.228;2022-10-13T00:34:52;10.97;;;8.03;;
50968;SDS011;36982;51.474;7.228;2022-10-13T00:37:17;13.90;;;8.23;;
50968;SDS011;36982;51.474;7.228;2022-10-13T00:39:43;16.10;;;8.87;;
50968;SDS011;36982;51.474;7.228;2022-10-13T00:42:10;12.67;;;7.63;;
50968;SDS011;36982;51.474;7.228;2022-10-13T00:47:20;15.30;;;8.97;;
50968;SDS011;36982;51.474;7.228;2022-10-13T00:49:47;11.73;;;8.10;;
50968;SDS011;36982;51.474;7.228;2022-10-13T00:52:13;14.13;;;8.33;;
50968;SDS011;36982;51.474;7.228;2022-10-13T00:54:40;12.40;;;7.60;;
50968;SDS011;36982;51.474;7.228;2022-10-13T00:57:06;11.97;;;7.37;;
50968;SDS011;36982;51.474;7.228;2022-10-13T00:59:32;12.70;;;7.90;;
50968;SDS011;36982;51.474;7.228;2022-10-13T01:01:59;12.33;;;7.70;;
50968;SDS011;36982;51.474;7.228;2022-10-13T01:04:27;12.33;;;7.70;;
50968;SDS011;36982;51.474;7.228;2022-10-13T01:06:57;11.77;;;7.00;;
50968;SDS011;36982;51.474;7.228;2022-10-13T01:09:22;12.73;;;7.57;;
50968;SDS011;36982;51.474;7.228;2022-10-13T01:14:29;10.33;;;6.87;;
50968;SDS011;36982;51.474;7.228;2022-10-13T01:22:38;14.00;;;7.87;;
50968;SDS011;36982;51.474;7.228;2022-10-13T01:36:15;13.53;;;7.50;;
50968;SDS011;36982;51.474;7.228;2022-10-13T01:41:34;10.77;;;6.67;;
50968;SDS011;36982;51.474;7.228;2022-10-13T01:46:49;14.17;;;7.50;;
50968;SDS011;36982;51.474;7.228;2022-10-13T01:49:16;13.53;;;7.90;;
50968;SDS011;36982;51.474;7.228;2022-10-13T01:51:44;10.47;;;6.90;;
50968;SDS011;36982;51.474;7.228;2022-10-13T01:54:11;11.13;;;7.10;;
50968;SDS011;36982;51.474;7.228;2022-10-13T01:56:37;8.43;;;6.70;;
50968;SDS011;36982;51.474;7.228;2022-10-13T01:59:10;16.87;;;7.33;;
50968;SDS011;36982;51.474;7.228;2022-10-13T02:06:50;9.17;;;6.63;;
50968;SDS011;36982;51.474;7.228;2022-10-13T02:12:22;15.93;;;7.77;;
50968;SDS011;36982;51.474;7.228;2022-10-13T02:15:13;11.27;;;5.80;;
50968;SDS011;36982;51.474;7.228;2022-10-13T02:17:43;10.93;;;7.00;;
50968;SDS011;36982;51.474;7.228;2022-10-13T02:20:09;12.90;;;6.53;;
50968;SDS011;36982;51.474;7.228;2022-10-13T02:22:36;10.70;;;6.80;;
50968;SDS011;36982;51.474;7.228;2022-10-13T02:25:05;11.23;;;6.97;;
50968;SDS011;36982;51.474;7.228;2022-10-13T02:27:32;11.87;;;6.60;;
50968;SDS011;36982;51.474;7.228;2022-10-13T02:29:58;9.07;;;6.20;;
50968;SDS011;36982;51.474;7.228;2022-10-13T02:32:23;13.20;;;7.17;;
50968;SDS011;36982;51.474;7.228;2022-10-13T02:34:49;13.00;;;6.87;;
50968;SDS011;36982;51.474;7.228;2022-10-13T02:37:15;12.20;;;6.87;;
50968;SDS011;36982;51.474;7.228;2022-10-13T02:39:41;13.60;;;7.33;;
50968;SDS011;36982;51.474;7.228;2022-10-13T02:42:07;11.20;;;6.90;;
50968;SDS011;36982;51.474;7.228;2022-10-13T02:44:33;13.60;;;7.00;;
50968;SDS011;36982;51.474;7.228;2022-10-13T02:46:58;10.47;;;6.60;;
50968;SDS011;36982;51.474;7.228;2022-10-13T02:49:24;11.70;;;7.30;;
50968;SDS011;36982;51.474;7.228;2022-10-13T02:51:50;11.10;;;6.83;;
50968;SDS011;36982;51.474;7.228;2022-10-13T02:54:17;10.37;;;6.30;;
50968;SDS011;36982;51.474;7.228;2022-10-13T02:56:42;10.50;;;6.83;;
50968;SDS011;36982;51.474;7.228;2022-10-13T02:59:08;15.50;;;7.00;;
50968;SDS011;36982;51.474;7.228;2022-10-13T03:01:33;13.40;;;7.70;;
50968;SDS011;36982;51.474;7.228;2022-10-13T03:04:05;13.07;;;7.60;;
50968;SDS011;36982;51.474;7.228;2022-10-13T03:06:33;11.83;;;7.13;;
50968;SDS011;36982;51.474;7.228;2022-10-13T03:08:59;11.80;;;7.47;;
50968;SDS011;36982;51.474;7.228;2022-10-13T03:11:25;12.70;;;7.30;;
50968;SDS011;36982;51.474;7.228;2022-10-13T03:13:50;12.20;;;6.30;;
50968;SDS011;36982;51.474;7.228;2022-10-13T03:16:16;12.30;;;7.20;;
50968;SDS011;36982;51.474;7.228;2022-10-13T03:18:42;10.83;;;7.50;;
50968;SDS011;36982;51.474;7.228;2022-10-13T03:21:08;10.47;;;7.07;;
50968;SDS011;36982;51.474;7.228;2022-10-13T03:23:34;11.87;;;6.70;;
50968;SDS011;36982;51.474;7.228;2022-10-13T03:26:00;11.90;;;6.80;;
50968;SDS011;36982;51.474;7.228;2022-10-13T03:28:26;10.17;;;6.60;;
50968;SDS011;36982;51.474;7.228;2022-10-13T03:30:59;13.07;;;7.47;;
50968;SDS011;36982;51.474;7.228;2022-10-13T03:33:29;11.03;;;6.80;;
50968;SDS011;36982;51.474;7.228;2022-10-13T03:35:56;9.50;;;6.43;;
50968;SDS011;36982;51.474;7.228;2022-10-13T03:38:24;11.33;;;6.97;;
50968;SDS011;36982;51.474;7.228;2022-10-13T03:40:49;12.30;;;7.57;;
50968;SDS011;36982;51.474;7.228;2022-10-13T03:43:15;13.37;;;7.60;;
50968;SDS011;36982;51.474;7.228;2022-10-13T03:45:40;11.63;;;6.90;;
50968;SDS011;36982;51.474;7.228;2022-10-13T03:48:06;13.57;;;7.90;;
50968;SDS011;36982;51.474;7.228;2022-10-13T03:50:31;12.50;;;7.40;;
50968;SDS011;36982;51.474;7.228;2022-10-13T03:52:57;11.00;;;7.17;;
50968;SDS011;36982;51.474;7.228;2022-10-13T03:55:22;12.57;;;7.23;;
50968;SDS011;36982;51.474;7.228;2022-10-13T03:57:48;12.03;;;7.43;;
50968;SDS011;36982;51.474;7.228;2022-10-13T04:00:14;11.03;;;6.67;;
50968;SDS011;36982;51.474;7.228;2022-10-13T04:02:40;10.67;;;6.83;;
50968;SDS011;36982;51.474;7.228;2022-10-13T04:05:06;12.37;;;7.23;;
50968;SDS011;36982;51.474;7.228;2022-10-13T04:07:31;12.70;;;7.33;;
50968;SDS011;36982;51.474;7.228;2022-10-13T04:09:57;10.33;;;6.93;;
50968;SDS011;36982;51.474;7.228;2022-10-13T04:12:22;11.17;;;7.20;;
50968;SDS011;36982;51.474;7.228;2022-10-13T04:14:48;11.30;;;7.33;;
50968;SDS011;36982;51.474;7.228;2022-10-13T04:17:14;11.40;;;6.57;;
50968;SDS011;36982;51.474;7.228;2022-10-13T04:19:39;12.10;;;7.20;;
50968;SDS011;36982;51.474;7.228;2022-10-13T04:22:05;9.97;;;6.83;;
50968;SDS011;36982;51.474;7.228;2022-10-13T04:24:30;10.73;;;6.30;;
50968;SDS011;36982;51.474;7.228;2022-10-13T04:26:56;13.10;;;6.40;;
50968;SDS011;36982;51.474;7.228;2022-10-13T04:29:22;10.70;;;7.13;;
50968;SDS011;36982;51.474;7.228;2022-10-13T04:31:48;13.37;;;7.03;;
50968;SDS011;36982;51.474;7.228;2022-10-13T04:34:14;10.53;;;7.33;;
50968;SDS011;36982;51.474;7.228;2022-10-13T04:36:39;13.03;;;6.43;;
50968;SDS011;36982;51.474;7.228;2022-10-13T04:39:05;11.10;;;6.47;;
50968;SDS011;36982;51.474;7.228;2022-10-13T04:41:31;11.13;;;6.93;;
50968;SDS011;36982;51.474;7.228;2022-10-13T04:43:56;12.03;;;7.17;;
50968;SDS011;36982;51.474;7.228;2022-10-13T04:46:24;10.33;;;7.67;;
50968;SDS011;36982;51.474;7.228;2022-10-13T04:48:50;10.80;;;6.20;;
50968;SDS011;36982;51.474;7.228;2022-10-13T04:51:18;13.40;;;7.00;;
50968;SDS011;36982;51.474;7.228;2022-10-13T04:53:45;10.83;;;6.37;;
50968;SDS011;36982;51.474;7.228;2022-10-13T04:56:12;10.23;;;6.20;;
50968;SDS011;36982;51.474;7.228;2022-10-13T04:58:40;10.73;;;6.63;;
50968;SDS011;36982;51.474;7.228;2022-10-13T05:01:06;10.70;;;6.67;;
50968;SDS011;36982;51.474;7.228;2022-10-13T05:03:36;11.70;;;6.20;;
50968;SDS011;36982;51.474;7.228;2022-10-13T05:06:01;10.53;;;6.90;;
50968;SDS011;36982;51.474;7.228;2022-10-13T05:08:28;9.90;;;6.23;;
50968;SDS011;36982;51.474;7.228;2022-10-13T05:10:57;9.63;;;6.80;;
50968;SDS011;36982;51.474;7.228;2022-10-13T05:13:25;12.57;;;6.30;;
50968;SDS011;36982;51.474;7.228;2022-10-13T05:15:52;9.97;;;6.63;;
50968;SDS011;36982;51.474;7.228;2022-10-13T05:18:18;12.00;;;6.07;;
50968;SDS011;36982;51.474;7.228;2022-10-13T05:20:44;7.23;;;5.80;;
50968;SDS011;36982;51.474;7.228;2022-10-13T05:23:10;11.23;;;5.83;;
50968;SDS011;36982;51.474;7.228;2022-10-13T05:25:36;11.53;;;6.37;;
50968;SDS011;36982;51.474;7.228;2022-10-13T05:28:03;11.30;;;6.27;;
50968;SDS011;36982;51.474;7.228;2022-10-13T05:30:30;10.77;;;6.10;;
50968;SDS011;36982;51.474;7.228;2022-10-13T05:32:56;12.53;;;6.23;;
50968;SDS011;36982;51.474;7.228;2022-10-13T05:35:22;9.77;;;6.03;;
50968;SDS011;36982;51.474;7.228;2022-10-13T05:37:48;11.00;;;6.43;;
50968;SDS011;36982;51.474;7.228;2022-10-13T05:40:13;13.93;;;6.53;;
50968;SDS011;36982;51.474;7.228;2022-10-13T05:42:39;10.93;;;6.17;;
50968;SDS011;36982;51.474;7.228;2022-10-13T05:45:07;11.77;;;6.17;;
50968;SDS011;36982;51.474;7.228;2022-10-13T05:47:34;7.70;;;5.70;;
50968;SDS011;36982;51.474;7.228;2022-10-13T05:49:59;11.43;;;6.30;;
50968;SDS011;36982;51.474;7.228;2022-10-13T05:52:25;9.30;;;6.90;;
50968;SDS011;36982;51.474;7.228;2022-10-13T05:54:55;9.20;;;6.73;;
50968;SDS011;36982;51.474;7.228;2022-10-13T05:57:27;10.93;;;6.03;;
50968;SDS011;36982;51.474;7.228;2022-10-13T06:00:01;11.67;;;6.47;;
50968;SDS011;36982;51.474;7.228;2022-10-13T06:02:36;10.90;;;6.10;;
50968;SDS011;36982;51.474;7.228;2022-10-13T06:05:19;11.00;;;6.63;;
50968;SDS011;36982;51.474;7.228;2022-10-13T06:07:48;8.47;;;5.17;;
50968;SDS011;36982;51.474;7.228;2022-10-13T06:10:14;10.70;;;5.77;;
50968;SDS011;36982;51.474;7.228;2022-10-13T06:12:40;6.57;;;5.73;;
50968;SDS011;36982;51.474;7.228;2022-10-13T06:15:06;10.67;;;6.17;;
50968;SDS011;36982;51.474;7.228;2022-10-13T06:17:34;11.03;;;6.03;;
50968;SDS011;36982;51.474;7.228;2022-10-13T06:20:03;10.37;;;6.00;;
50968;SDS011;36982;51.474;7.228;2022-10-13T06:22:30;8.00;;;5.90;;
50968;SDS011;36982;51.474;7.228;2022-10-13T06:24:57;10.30;;;5.90;;
50968;SDS011;36982;51.474;7.228;2022-10-13T06:27:23;8.70;;;6.27;;
50968;SDS011;36982;51.474;7.228;2022-10-13T06:29:48;11.00;;;5.90;;
50968;SDS011;36982;51.474;7.228;2022-10-13T06:32:14;8.20;;;5.50;;
50968;SDS011;36982;51.474;7.228;2022-10-13T06:34:39;9.50;;;5.90;;
50968;SDS011;36982;51.474;7.228;2022-10-13T06:37:05;8.10;;;5.83;;
50968;SDS011;36982;51.474;7.228;2022-10-13T06:39:31;10.23;;;6.00;;
50968;SDS011;36982;51.474;7.228;2022-10-13T06:41:56;10.60;;;5.30;;
50968;SDS011;36982;51.474;7.228;2022-10-13T06:44:22;9.97;;;5.53;;
50968;SDS011;36982;51.474;7.228;2022-10-13T06:46:48;8.83;;;6.00;;
50968;SDS011;36982;51.474;7.228;2022-10-13T06:49:13;10.00;;;5.80;;
50968;SDS011;36982;51.474;7.228;2022-10-13T06:51:39;7.23;;;5.57;;
50968;SDS011;36982;51.474;7.228;2022-10-13T06:54:04;8.63;;;5.50;;
50968;SDS011;36982;51.474;7.228;2022-10-13T06:56:30;9.33;;;5.53;;
50968;SDS011;36982;51.474;7.228;2022-10-13T06:58:56;11.33;;;5.83;;
50968;SDS011;36982;51.474;7.228;2022-10-13T07:01:21;8.13;;;5.60;;
50968;SDS011;36982;51.474;7.228;2022-10-13T07:03:47;9.63;;;5.87;;
50968;SDS011;36982;51.474;7.228;2022-10-13T07:06:13;8.60;;;6.13;;
50968;SDS011;36982;51.474;7.228;2022-10-13T07:08:39;10.40;;;6.10;;
50968;SDS011;36982;51.474;7.228;2022-10-13T07:11:05;8.83;;;5.83;;
50968;SDS011;36982;51.474;7.228;2022-10-13T07:13:37;9.77;;;6.07;;
50968;SDS011;36982;51.474;7.228;2022-10-13T07:16:03;7.80;;;5.93;;
50968;SDS011;36982;51.474;7.228;2022-10-13T07:18:30;10.77;;;5.93;;
50968;SDS011;36982;51.474;7.228;2022-10-13T07:20:56;9.70;;;5.67;;
50968;SDS011;36982;51.474;7.228;2022-10-13T07:23:24;11.20;;;6.73;;
50968;SDS011;36982;51.474;7.228;2022-10-13T07:25:50;9.20;;;5.80;;
50968;SDS011;36982;51.474;7.228;2022-10-13T07:28:15;11.23;;;6.07;;
50968;SDS011;36982;51.474;7.228;2022-10-13T07:30:41;10.87;;;6.03;;
50968;SDS011;36982;51.474;7.228;2022-10-13T07:33:07;10.63;;;5.60;;
50968;SDS011;36982;51.474;7.228;2022-10-13T07:35:33;11.47;;;6.73;;
50968;SDS011;36982;51.474;7.228;2022-10-13T07:38:02;12.43;;;6.70;;
50968;SDS011;36982;51.474;7.228;2022-10-13T07:40:28;12.57;;;6.10;;
50968;SDS011;36982;51.474;7.228;2022-10-13T07:42:54;11.10;;;6.47;;
50968;SDS011;36982;51.474;7.228;2022-10-13T07:45:21;11.30;;;6.37;;
50968;SDS011;36982;51.474;7.228;2022-10-13T07:47:46;7.90;;;5.60;;
50968;SDS011;36982;51.474;7.228;2022-10-13T07:50:12;7.60;;;5.90;;
50968;SDS011;36982;51.474;7.228;2022-10-13T07:52:38;11.23;;;6.60;;
50968;SDS011;36982;51.474;7.228;2022-10-13T07:55:04;9.47;;;6.20;;
50968;SDS011;36982;51.474;7.228;2022-10-13T07:57:30;9.63;;;5.40;;
50968;SDS011;36982;51.474;7.228;2022-10-13T07:59:55;9.73;;;6.10;;
50968;SDS011;36982;51.474;7.228;2022-10-13T08:02:21;11.13;;;6.00;;
50968;SDS011;36982;51.474;7.228;2022-10-13T08:04:46;10.57;;;5.77;;
50968;SDS011;36982;51.474;7.228;2022-10-13T08:07:12;7.73;;;5.60;;
50968;SDS011;36982;51.474;7.228;2022-10-13T08:09:40;10.83;;;5.63;;
50968;SDS011;36982;51.474;7.228;2022-10-13T08:12:06;10.77;;;5.70;;
50968;SDS011;36982;51.474;7.228;2022-10-13T08:14:31;12.30;;;5.93;;
50968;SDS011;36982;51.474;7.228;2022-10-13T08:16:57;9.30;;;5.80;;
50968;SDS011;36982;51.474;7.228;2022-10-13T08:19:23;9.33;;;6.17;;
50968;SDS011;36982;51.474;7.228;2022-10-13T08:21:50;9.53;;;5.57;;
50968;SDS011;36982;51.474;7.228;2022-10-13T08:24:16;8.57;;;6.00;;
50968;SDS011;36982;51.474;7.228;2022-10-13T08:26:43;11.20;;;6.53;;
50968;SDS011;36982;51.474;7.228;2022-10-13T08:29:10;10.33;;;6.07;;
50968;SDS011;36982;51.474;7.228;2022-10-13T08:31:37;12.60;;;6.27;;
50968;SDS011;36982;51.474;7.228;2022-10-13T08:34:02;11.03;;;5.70;;
50968;SDS011;36982;51.474;7.228;2022-10-13T08:36:28;12.67;;;5.90;;
50968;SDS011;36982;51.474;7.228;2022-10-13T08:38:54;10.77;;;6.93;;
50968;SDS011;36982;51.474;7.228;2022-10-13T08:41:22;11.37;;;6.57;;
50968;SDS011;36982;51.474;7.228;2022-10-13T08:43:54;9.67;;;6.03;;
50968;SDS011;36982;51.474;7.228;2022-10-13T08:46:36;10.93;;;6.03;;
50968;SDS011;36982;51.474;7.228;2022-10-13T08:49:22;11.63;;;5.80;;
50968;SDS011;36982;51.474;7.228;2022-10-13T08:51:48;9.40;;;6.27;;
50968;SDS011;36982;51.474;7.228;2022-10-13T08:54:14;11.17;;;5.77;;
50968;SDS011;36982;51.474;7.228;2022-10-13T08:56:41;9.80;;;5.77;;
50968;SDS011;36982;51.474;7.228;2022-10-13T08:59:09;9.53;;;6.00;;
50968;SDS011;36982;51.474;7.228;2022-10-13T09:01:38;11.60;;;5.97;;
50968;SDS011;36982;51.474;7.228;2022-10-13T09:09:36;9.50;;;5.60;;
50968;SDS011;36982;51.474;7.228;2022-10-13T09:12:03;11.53;;;5.67;;
50968;SDS011;36982;51.474;7.228;2022-10-13T09:14:30;11.33;;;5.83;;
50968;SDS011;36982;51.474;7.228;2022-10-13T09:22:32;12.30;;;5.70;;
50968;SDS011;36982;51.474;7.228;2022-10-13T09:33:24;6.70;;;4.47;;
50968;SDS011;36982;51.474;7.228;2022-10-13T09:35:45;10.77;;;5.70;;
50968;SDS011;36982;51.474;7.228;2022-10-13T09:38:21;9.70;;;5.30;;
50968;SDS011;36982;51.474;7.228;2022-10-13T09:40:59;8.20;;;4.87;;
50968;SDS011;36982;51.474;7.228;2022-10-13T09:48:50;10.40;;;5.40;;
50968;SDS011;36982;51.474;7.228;2022-10-13T09:54:05;8.43;;;5.20;;
50968;SDS011;36982;51.474;7.228;2022-10-13T09:56:53;9.67;;;5.33;;
50968;SDS011;36982;51.474;7.228;2022-10-13T09:59:27;8.68;;;5.20;;
50968;SDS011;36982;51.474;7.228;2022-10-13T10:02:23;9.27;;;5.32;;
50968;SDS011;36982;51.474;7.228;2022-10-13T10:04:50;7.30;;;5.10;;
50968;SDS011;36982;51.474;7.228;2022-10-13T10:07:19;10.93;;;5.43;;
50968;SDS011;36982;51.474;7.228;2022-10-13T10:09:50;11.30;;;5.13;;
50968;SDS011;36982;51.474;7.228;2022-10-13T10:12:20;9.73;;;5.27;;
50968;SDS011;36982;51.474;7.228;2022-10-13T10:14:51;10.60;;;5.07;;
50968;SDS011;36982;51.474;7.228;2022-10-13T10:17:22;5.93;;;4.82;;
50968;SDS011;36982;51.474;7.228;2022-10-13T10:28:15;9.47;;;5.13;;
50968;SDS011;36982;51.474;7.228;2022-10-13T10:30:59;7.22;;;4.75;;
50968;SDS011;36982;51.474;7.228;2022-10-13T10:36:31;10.50;;;5.10;;
50968;SDS011;36982;51.474;7.228;2022-10-13T10:39:16;8.47;;;5.07;;
50968;SDS011;36982;51.474;7.228;2022-10-13T10:41:54;6.80;;;5.07;;
50968;SDS011;36982;51.474;7.228;2022-10-13T10:44:29;7.97;;;5.20;;
50968;SDS011;36982;51.474;7.228;2022-10-13T10:46:58;8.88;;;5.00;;
50968;SDS011;36982;51.474;7.228;2022-10-13T10:49:33;6.83;;;4.90;;
50968;SDS011;36982;51.474;7.228;2022-10-13T10:52:01;8.75;;;4.53;;
50968;SDS011;36982;51.474;7.228;2022-10-13T11:00:05;7.82;;;4.68;;
50968;SDS011;36982;51.474;7.228;2022-10-13T11:02:43;7.87;;;4.35;;
50968;SDS011;36982;51.474;7.228;2022-10-13T11:05:24;8.23;;;4.57;;
50968;SDS011;36982;51.474;7.228;2022-10-13T11:07:55;7.20;;;4.30;;
50968;SDS011;36982;51.474;7.228;2022-10-13T11:10:21;10.52;;;4.85;;
50968;SDS011;36982;51.474;7.228;2022-10-13T11:15:40;11.05;;;5.03;;
50968;SDS011;36982;51.474;7.228;2022-10-13T11:18:51;8.55;;;4.65;;
50968;SDS011;36982;51.474;7.228;2022-10-13T11:21:23;8.02;;;4.87;;
50968;SDS011;36982;51.474;7.228;2022-10-13T11:23:50;8.30;;;4.93;;
50968;SDS011;36982;51.474;7.228;2022-10-13T11:28:55;6.35;;;4.10;;
50968;SDS011;36982;51.474;7.228;2022-10-13T11:31:23;9.20;;;5.65;;
50968;SDS011;36982;51.474;7.228;2022-10-13T11:33:51;8.65;;;5.37;;
50968;SDS011;36982;51.474;7.228;2022-10-13T11:41:30;7.28;;;4.10;;
50968;SDS011;36982;51.474;7.228;2022-10-13T11:47:11;8.43;;;4.30;;
50968;SDS011;36982;51.474;7.228;2022-10-13T11:55:57;10.60;;;4.43;;
50968;SDS011;36982;51.474;7.228;2022-10-13T11:58:29;6.63;;;4.07;;
50968;SDS011;36982;51.474;7.228;2022-10-13T12:01:01;8.07;;;4.53;;
50968;SDS011;36982;51.474;7.228;2022-10-13T12:06:03;6.77;;;4.10;;
50968;SDS011;36982;51.474;7.228;2022-10-13T12:08:32;7.33;;;3.83;;
50968;SDS011;36982;51.474;7.228;2022-10-13T12:11:00;7.55;;;3.72;;
50968;SDS011;36982;51.474;7.228;2022-10-13T12:13:30;8.45;;;3.87;;
50968;SDS011;36982;51.474;7.228;2022-10-13T12:16:04;11.67;;;4.83;;
50968;SDS011;36982;51.474;7.228;2022-10-13T12:18:35;11.93;;;6.00;;
50968;SDS011;36982;51.474;7.228;2022-10-13T12:23:36;9.70;;;5.10;;
50968;SDS011;36982;51.474;7.228;2022-10-13T12:26:02;13.07;;;4.67;;
50968;SDS011;36982;51.474;7.228;2022-10-13T12:28:29;7.50;;;4.47;;
50968;SDS011;36982;51.474;7.228;2022-10-13T12:34:16;8.17;;;4.23;;
50968;SDS011;36982;51.474;7.228;2022-10-13T12:36:42;8.63;;;5.17;;
50968;SDS011;36982;51.474;7.228;2022-10-13T12:39:11;9.37;;;4.90;;
50968;SDS011;36982;51.474;7.228;2022-10-13T12:41:42;7.13;;;4.53;;
50968;SDS011;36982;51.474;7.228;2022-10-13T12:44:14;12.50;;;5.17;;
50968;SDS011;36982;51.474;7.228;2022-10-13T12:46:52;10.10;;;5.03;;
50968;SDS011;36982;51.474;7.228;2022-10-13T12:49:24;10.23;;;6.30;;
50968;SDS011;36982;51.474;7.228;2022-10-13T12:52:04;8.80;;;5.43;;
50968;SDS011;36982;51.474;7.228;2022-10-13T12:54:35;11.77;;;5.80;;
50968;SDS011;36982;51.474;7.228;2022-10-13T12:57:19;7.93;;;5.37;;
50968;SDS011;36982;51.474;7.228;2022-10-13T12:59:45;9.27;;;5.97;;
50968;SDS011;36982;51.474;7.228;2022-10-13T13:02:30;13.00;;;7.20;;
50968;SDS011;36982;51.474;7.228;2022-10-13T13:04:57;10.37;;;6.33;;
50968;SDS011;36982;51.474;7.228;2022-10-13T13:07:30;11.70;;;7.53;;
50968;SDS011;36982;51.474;7.228;2022-10-13T13:10:02;9.20;;;6.60;;
50968;SDS011;36982;51.474;7.228;2022-10-13T13:12:31;10.40;;;7.03;;
50968;SDS011;36982;51.474;7.228;2022-10-13T13:14:56;13.43;;;8.50;;
50968;SDS011;36982;51.474;7.228;2022-10-13T13:17:24;10.80;;;7.63;;
50968;SDS011;36982;51.474;7.228;2022-10-13T13:19:54;12.57;;;8.23;;
50968;SDS011;36982;51.474;7.228;2022-10-13T13:22:21;13.40;;;7.80;;
50968;SDS011;36982;51.474;7.228;2022-10-13T13:24:48;15.83;;;8.30;;
50968;SDS011;36982;51.474;7.228;2022-10-13T13:30:00;13.00;;;8.47;;
50968;SDS011;36982;51.474;7.228;2022-10-13T13:32:25;13.73;;;7.93;;
50968;SDS011;36982;51.474;7.228;2022-10-13T13:34:52;11.10;;;7.87;;
50968;SDS011;36982;51.474;7.228;2022-10-13T13:37:26;11.77;;;7.63;;
50968;SDS011;36982;51.474;7.228;2022-10-13T13:39:54;13.53;;;7.77;;
50968;SDS011;36982;51.474;7.228;2022-10-13T13:42:21;13.57;;;7.63;;
50968;SDS011;36982;51.474;7.228;2022-10-13T13:44:47;15.03;;;7.17;;
50968;SDS011;36982;51.474;7.228;2022-10-13T13:47:17;15.00;;;8.17;;
50968;SDS011;36982;51.474;7.228;2022-10-13T13:49:44;12.33;;;6.90;;
50968;SDS011;36982;51.474;7.228;2022-10-13T13:52:10;11.77;;;7.80;;
50968;SDS011;36982;51.474;7.228;2022-10-13T13:54:36;12.60;;;7.87;;
50968;SDS011;36982;51.474;7.228;2022-10-13T13:57:02;11.87;;;7.40;;
50968;SDS011;36982;51.474;7.228;2022-10-13T13:59:28;11.77;;;6.73;;
50968;SDS011;36982;51.474;7.228;2022-10-13T14:01:53;12.90;;;6.73;;
50968;SDS011;36982;51.474;7.228;2022-10-13T14:04:19;9.73;;;6.07;;
50968;SDS011;36982;51.474;7.228;2022-10-13T14:06:44;8.47;;;6.17;;
50968;SDS011;36982;51.474;7.228;2022-10-13T14:09:10;8.70;;;5.90;;
50968;SDS011;36982;51.474;7.228;2022-10-13T14:11:36;10.90;;;6.10;;
50968;SDS011;36982;51.474;7.228;2022-10-13T14:14:01;8.07;;;5.30;;
50968;SDS011;36982;51.474;7.228;2022-10-13T14:16:27;7.30;;;4.70;;
50968;SDS011;36982;51.474;7.228;2022-10-13T14:18:52;8.17;;;4.83;;
50968;SDS011;36982;51.474;7.228;2022-10-13T14:21:20;7.20;;;4.77;;
50968;SDS011;36982;51.474;7.228;2022-10-13T14:23:46;8.37;;;5.13;;
50968;SDS011;36982;51.474;7.228;2022-10-13T14:26:11;8.80;;;5.53;;
50968;SDS011;36982;51.474;7.228;2022-10-13T14:28:41;7.87;;;4.97;;
50968;SDS011;36982;51.474;7.228;2022-10-13T14:31:08;6.97;;;4.67;;
50968;SDS011;36982;51.474;7.228;2022-10-13T14:33:34;7.00;;;4.87;;
50968;SDS011;36982;51.474;7.228;2022-10-13T14:36:00;5.90;;;4.50;;
50968;SDS011;36982;51.474;7.228;2022-10-13T14:38:27;7.73;;;5.00;;
50968;SDS011;36982;51.474;7.228;2022-10-13T14:40:57;9.33;;;4.83;;
50968;SDS011;36982;51.474;7.228;2022-10-13T14:43:24;8.07;;;4.67;;
50968;SDS011;36982;51.474;7.228;2022-10-13T14:45:49;8.07;;;4.70;;
50968;SDS011;36982;51.474;7.228;2022-10-13T14:48:15;6.50;;;4.43;;
50968;SDS011;36982;51.474;7.228;2022-10-13T14:50:40;7.93;;;4.70;;
50968;SDS011;36982;51.474;7.228;2022-10-13T14:53:06;7.13;;;5.30;;
50968;SDS011;36982;51.474;7.228;2022-10-13T14:55:33;9.73;;;5.47;;
50968;SDS011;36982;51.474;7.228;2022-10-13T14:57:59;9.33;;;5.30;;
50968;SDS011;36982;51.474;7.228;2022-10-13T15:00:25;6.17;;;4.87;;
50968;SDS011;36982;51.474;7.228;2022-10-13T15:02:50;8.67;;;5.27;;
50968;SDS011;36982;51.474;7.228;2022-10-13T15:05:16;10.47;;;5.37;;
50968;SDS011;36982;51.474;7.228;2022-10-13T15:07:42;9.97;;;5.67;;
50968;SDS011;36982;51.474;7.228;2022-10-13T15:10:08;10.07;;;6.47;;
50968;SDS011;36982;51.474;7.228;2022-10-13T15:12:34;11.07;;;6.17;;
50968;SDS011;36982;51.474;7.228;2022-10-13T15:14:59;12.13;;;7.80;;
50968;SDS011;36982;51.474;7.228;2022-10-13T15:17:25;8.97;;;6.27;;
50968;SDS011;36982;51.474;7.228;2022-10-13T15:19:52;10.47;;;6.43;;
50968;SDS011;36982;51.474;7.228;2022-10-13T15:22:17;9.37;;;6.13;;
50968;SDS011;36982;51.474;7.228;2022-10-13T15:24:43;11.67;;;6.67;;
50968;SDS011;36982;51.474;7.228;2022-10-13T15:27:09;9.90;;;6.80;;
50968;SDS011;36982;51.474;7.228;2022-10-13T15:29:35;9.47;;;6.67;;
50968;SDS011;36982;51.474;7.228;2022-10-13T15:32:11;11.80;;;7.10;;
50968;SDS011;36982;51.474;7.228;2022-10-13T15:34:42;10.50;;;6.53;;
50968;SDS011;36982;51.474;7.228;2022-10-13T15:37:08;10.10;;;6.70;;
50968;SDS011;36982;51.474;7.228;2022-10-13T15:39:35;10.80;;;7.00;;
50968;SDS011;36982;51.474;7.228;2022-10-13T15:42:01;11.10;;;7.60;;
50968;SDS011;36982;51.474;7.228;2022-10-13T15:44:27;11.50;;;6.90;;
50968;SDS011;36982;51.474;7.228;2022-10-13T15:46:55;9.50;;;6.70;;
50968;SDS011;36982;51.474;7.228;2022-10-13T15:49:21;8.87;;;6.90;;
50968;SDS011;36982;51.474;7.228;2022-10-13T15:51:47;11.90;;;7.10;;
50968;SDS011;36982;51.474;7.228;2022-10-13T15:54:14;9.57;;;6.57;;
50968;SDS011;36982;51.474;7.228;2022-10-13T15:56:40;9.40;;;6.90;;
50968;SDS011;36982;51.474;7.228;2022-10-13T15:59:05;12.20;;;7.93;;
50968;SDS011;36982;51.474;7.228;2022-10-13T16:01:31;15.43;;;7.47;;
50968;SDS011;36982;51.474;7.228;2022-10-13T16:03:57;11.57;;;7.77;;
50968;SDS011;36982;51.474;7.228;2022-10-13T16:06:23;9.43;;;7.50;;
50968;SDS011;36982;51.474;7.228;2022-10-13T16:08:50;10.27;;;7.80;;
50968;SDS011;36982;51.474;7.228;2022-10-13T16:11:16;12.33;;;7.67;;
50968;SDS011;36982;51.474;7.228;2022-10-13T16:13:45;11.33;;;7.40;;
50968;SDS011;36982;51.474;7.228;2022-10-13T16:16:11;10.60;;;7.93;;
50968;SDS011;36982;51.474;7.228;2022-10-13T16:18:38;11.93;;;8.20;;
50968;SDS011;36982;51.474;7.228;2022-10-13T16:21:15;11.33;;;8.50;;
50968;SDS011;36982;51.474;7.228;2022-10-13T16:23:43;14.13;;;8.97;;
50968;SDS011;36982;51.474;7.228;2022-10-13T16:26:08;12.00;;;8.10;;
50968;SDS011;36982;51.474;7.228;2022-10-13T16:28:34;13.90;;;8.87;;
50968;SDS011;36982;51.474;7.228;2022-10-13T16:31:08;14.77;;;8.40;;
50968;SDS011;36982;51.474;7.228;2022-10-13T16:33:39;12.07;;;7.57;;